createdAt,value
2017-10-19T00:00:40.140Z,95.90
2017-10-19T00:03:07.810Z,95.50
2017-10-19T00:05:35.444Z,96.00
2017-10-19T00:08:03.079Z,95.10
2017-10-19T00:10:30.738Z,95.30
2017-10-19T00:12:58.355Z,94.80
2017-10-19T00:15:26.167Z,95.10
2017-10-19T00:17:53.789Z,94.80
2017-10-19T00:20:21.408Z,94.20
2017-10-19T00:22:49.053Z,94.30
2017-10-19T00:25:16.834Z,94.30
2017-10-19T00:27:44.490Z,94.50
2017-10-19T00:30:12.106Z,95.00
2017-10-19T00:32:39.739Z,95.00
2017-10-19T00:35:07.446Z,94.20
2017-10-19T00:37:35.079Z,93.00
2017-10-19T00:40:03.771Z,93.00
2017-10-19T00:42:31.392Z,93.00
2017-10-19T00:44:59.006Z,93.40
2017-10-19T00:47:26.654Z,94.50
2017-10-19T00:49:54.272Z,94.50
2017-10-19T00:52:22.699Z,94.20
2017-10-19T00:54:50.328Z,94.10
2017-10-19T00:57:18.010Z,94.10
2017-10-19T00:59:45.737Z,94.30
2017-10-19T01:02:13.368Z,94.60
2017-10-19T01:04:41.025Z,94.40
2017-10-19T01:07:08.677Z,94.20
2017-10-19T01:09:36.315Z,94.10
2017-10-19T01:12:03.975Z,94.40
2017-10-19T01:14:31.606Z,94.70
2017-10-19T01:16:59.257Z,94.70
2017-10-19T01:19:26.890Z,94.50
2017-10-19T01:21:54.517Z,94.80
2017-10-19T01:24:22.162Z,95.10
2017-10-19T01:26:49.781Z,95.20
2017-10-19T01:29:17.436Z,95.70
2017-10-19T01:31:45.879Z,96.00
2017-10-19T01:34:13.526Z,96.00
2017-10-19T01:36:41.188Z,95.80
2017-10-19T01:39:09.572Z,96.20
2017-10-19T01:41:37.226Z,96.10
2017-10-19T01:44:04.862Z,96.10
2017-10-19T01:46:32.485Z,96.20
2017-10-19T01:49:00.901Z,96.80
2017-10-19T01:51:28.538Z,96.60
2017-10-19T01:53:56.271Z,96.30
2017-10-19T01:56:23.893Z,96.10
2017-10-19T01:58:52.311Z,96.60
2017-10-19T02:01:19.936Z,96.60
2017-10-19T02:03:47.555Z,96.80
2017-10-19T02:06:16.122Z,95.50
2017-10-19T02:08:43.751Z,95.50
2017-10-19T02:11:11.409Z,95.30
2017-10-19T02:13:39.034Z,95.20
2017-10-19T02:16:06.818Z,95.20
2017-10-19T02:18:35.360Z,95.90
2017-10-19T02:21:02.987Z,95.80
2017-10-19T02:23:30.642Z,96.70
2017-10-19T02:25:58.302Z,96.70
2017-10-19T02:28:25.982Z,96.90
2017-10-19T02:30:53.642Z,97.30
2017-10-19T02:33:21.286Z,97.90
2017-10-19T02:35:48.946Z,98.30
2017-10-19T02:38:16.571Z,98.70
2017-10-19T02:40:44.191Z,98.70
2017-10-19T02:43:11.842Z,99.90
2017-10-19T02:45:40.218Z,99.90
2017-10-19T02:48:08.641Z,99.90
2017-10-19T02:50:36.287Z,99.90
2017-10-19T02:53:03.930Z,99.90
2017-10-19T02:55:31.607Z,99.90
2017-10-19T02:58:00.007Z,99.90
2017-10-19T03:00:27.666Z,99.90
2017-10-19T03:02:55.376Z,99.90
2017-10-19T03:05:23.778Z,99.90
2017-10-19T03:07:51.417Z,99.90
2017-10-19T03:10:19.047Z,99.90
2017-10-19T03:12:46.706Z,99.90
2017-10-19T03:15:14.326Z,99.90
2017-10-19T03:17:41.950Z,99.90
2017-10-19T03:20:09.616Z,99.90
2017-10-19T03:22:38.018Z,99.90
2017-10-19T03:25:05.909Z,99.90
2017-10-19T03:27:33.542Z,99.90
2017-10-19T03:30:01.186Z,99.90
2017-10-19T03:32:28.849Z,99.90
2017-10-19T03:34:56.482Z,99.90
2017-10-19T03:37:24.151Z,99.90
2017-10-19T03:39:51.785Z,99.90
2017-10-19T03:42:19.431Z,99.90
2017-10-19T03:44:47.255Z,99.90
2017-10-19T03:47:14.924Z,99.90
2017-10-19T03:49:42.602Z,99.90
2017-10-19T03:52:10.237Z,99.90
2017-10-19T03:54:38.634Z,99.90
2017-10-19T03:57:06.289Z,99.90
2017-10-19T03:59:33.923Z,99.90
2017-10-19T04:02:01.595Z,99.90
2017-10-19T04:04:29.237Z,99.90
2017-10-19T04:06:56.903Z,99.90
2017-10-19T04:09:24.557Z,99.90
2017-10-19T04:11:52.219Z,99.90
2017-10-19T04:14:19.975Z,99.90
2017-10-19T04:16:47.610Z,99.90
2017-10-19T04:19:15.278Z,99.90
2017-10-19T04:21:42.965Z,99.90
2017-10-19T04:24:10.628Z,99.90
2017-10-19T04:26:38.290Z,99.90
2017-10-19T04:29:06.169Z,99.90
2017-10-19T04:31:34.565Z,99.90
2017-10-19T04:34:02.305Z,99.90
2017-10-19T04:36:29.936Z,99.90
2017-10-19T04:38:58.366Z,99.90
2017-10-19T04:41:26.175Z,99.90
2017-10-19T04:43:53.818Z,99.90
2017-10-19T04:46:21.471Z,99.90
2017-10-19T04:48:49.103Z,99.90
2017-10-19T04:51:16.902Z,99.90
2017-10-19T04:53:44.534Z,99.90
2017-10-19T04:56:12.164Z,99.90
2017-10-19T04:58:39.826Z,99.90
2017-10-19T05:01:07.459Z,99.90
2017-10-19T05:03:35.388Z,99.90
2017-10-19T05:06:03.022Z,99.90
2017-10-19T05:08:30.662Z,99.90
2017-10-19T05:10:58.306Z,99.90
2017-10-19T05:13:26.260Z,99.90
2017-10-19T05:15:53.931Z,99.90
2017-10-19T05:18:21.578Z,99.90
2017-10-19T05:20:49.966Z,99.90
2017-10-19T05:23:17.611Z,99.90
2017-10-19T05:25:45.412Z,99.90
2017-10-19T05:28:13.091Z,99.90
2017-10-19T05:30:40.724Z,99.90
2017-10-19T05:33:09.129Z,99.90
2017-10-19T05:35:37.024Z,99.90
2017-10-19T05:38:04.655Z,99.90
2017-10-19T05:40:32.321Z,99.90
2017-10-19T05:43:00.195Z,99.90
2017-10-19T05:45:27.842Z,99.90
2017-10-19T05:47:56.998Z,99.90
2017-10-19T05:50:24.791Z,99.90
2017-10-19T05:52:53.938Z,99.90
2017-10-19T05:55:22.395Z,99.90
2017-10-19T05:57:50.024Z,99.90
2017-10-19T06:00:17.694Z,99.90
2017-10-19T06:02:46.259Z,99.90
2017-10-19T06:05:13.924Z,99.90
2017-10-19T06:07:41.575Z,99.90
2017-10-19T06:10:09.217Z,99.90
2017-10-19T06:12:36.937Z,99.90
2017-10-19T06:15:04.573Z,99.90
2017-10-19T06:17:33.142Z,99.90
2017-10-19T06:20:00.808Z,99.90
2017-10-19T06:22:28.477Z,99.90
2017-10-19T06:24:56.326Z,99.90
2017-10-19T06:27:23.961Z,99.90
2017-10-19T06:29:52.406Z,99.90
2017-10-19T06:32:20.031Z,99.90
2017-10-19T06:34:47.665Z,99.90
2017-10-19T06:37:15.390Z,99.90
2017-10-19T06:39:43.034Z,99.90
2017-10-19T06:42:10.714Z,99.90
2017-10-19T06:44:38.358Z,99.90
2017-10-19T06:47:06.179Z,99.90
2017-10-19T06:49:33.838Z,99.90
2017-10-19T06:52:01.470Z,99.90
2017-10-19T06:54:29.154Z,99.90
2017-10-19T06:56:56.801Z,99.90
2017-10-19T06:59:24.428Z,99.90
2017-10-19T07:01:52.806Z,99.90
2017-10-19T07:04:20.450Z,99.90
2017-10-19T07:06:48.138Z,99.90
2017-10-19T07:09:15.782Z,99.90
2017-10-19T07:11:43.408Z,99.90
2017-10-19T07:14:11.069Z,99.90
2017-10-19T07:16:38.700Z,99.90
2017-10-19T07:19:06.389Z,99.90
2017-10-19T07:21:34.789Z,99.90
2017-10-19T07:24:02.454Z,99.90
2017-10-19T07:26:30.119Z,99.90
2017-10-19T07:28:57.755Z,99.90
2017-10-19T07:31:25.434Z,99.90
2017-10-19T07:33:53.826Z,96.40
2017-10-19T07:36:21.458Z,96.40
2017-10-19T07:38:49.106Z,97.00
2017-10-19T07:41:16.883Z,99.30
2017-10-19T07:43:44.546Z,99.70
2017-10-19T07:46:12.209Z,99.20
2017-10-19T07:48:39.834Z,99.30
2017-10-19T07:51:07.494Z,99.10
2017-10-19T07:53:35.396Z,98.30
2017-10-19T07:56:03.840Z,96.40
2017-10-19T07:58:31.476Z,96.40
2017-10-19T08:00:59.109Z,94.10
2017-10-19T08:03:26.862Z,93.60
2017-10-19T08:05:54.508Z,92.00
2017-10-19T08:08:22.174Z,90.00
2017-10-19T08:10:50.576Z,81.10
2017-10-19T08:13:18.220Z,80.90
2017-10-19T08:15:46.009Z,77.50
2017-10-19T08:18:13.617Z,71.80
2017-10-19T08:20:42.038Z,66.40
2017-10-19T08:23:09.651Z,66.40
2017-10-19T08:25:37.259Z,66.10
2017-10-19T08:28:04.894Z,67.50
2017-10-19T08:30:32.583Z,67.00
2017-10-19T08:33:00.297Z,64.50
2017-10-19T08:35:27.902Z,59.40
2017-10-19T08:37:55.730Z,52.40
2017-10-19T08:40:23.367Z,51.80
2017-10-19T08:42:50.992Z,49.70
2017-10-19T08:45:18.659Z,52.50
2017-10-19T08:47:46.280Z,49.00
2017-10-19T08:50:13.892Z,48.50
2017-10-19T08:52:41.519Z,47.50
2017-10-19T08:55:09.119Z,46.30
2017-10-19T08:57:36.975Z,42.60
2017-10-19T09:00:04.587Z,44.30
2017-10-19T09:02:32.207Z,41.00
2017-10-19T09:04:59.835Z,46.30
2017-10-19T09:07:27.466Z,45.70
2017-10-19T09:09:55.938Z,41.80
2017-10-19T09:12:24.318Z,44.30
2017-10-19T09:14:51.934Z,44.30
2017-10-19T09:17:19.562Z,43.30
2017-10-19T09:19:47.299Z,44.40
2017-10-19T09:22:14.930Z,37.60
2017-10-19T09:24:42.537Z,33.70
2017-10-19T09:27:10.988Z,31.20
2017-10-19T09:29:39.416Z,28.10
2017-10-19T09:32:07.119Z,28.00
2017-10-19T09:34:34.754Z,27.20
2017-10-19T09:37:03.469Z,26.90
2017-10-19T09:39:31.067Z,26.80
2017-10-19T09:41:59.454Z,22.40
2017-10-19T09:44:27.232Z,21.70
2017-10-19T09:46:54.871Z,24.70
2017-10-19T09:49:22.466Z,23.70
2017-10-19T09:51:50.064Z,22.40
2017-10-19T09:54:17.694Z,18.70
2017-10-19T09:56:45.317Z,18.40
2017-10-19T09:59:12.978Z,19.30
2017-10-19T10:01:40.674Z,19.40
2017-10-19T10:04:08.293Z,18.10
2017-10-19T10:06:35.965Z,17.70
2017-10-19T10:09:03.567Z,17.70
2017-10-19T10:11:31.223Z,18.30
2017-10-19T10:13:59.386Z,17.30
2017-10-19T10:16:27.062Z,18.70
2017-10-19T10:18:54.690Z,18.60
2017-10-19T10:21:22.281Z,19.00
2017-10-19T10:23:49.922Z,21.70
2017-10-19T10:26:17.527Z,21.30
2017-10-19T10:28:45.127Z,23.70
2017-10-19T10:31:13.532Z,23.30
2017-10-19T10:33:41.133Z,23.30
2017-10-19T10:36:09.563Z,25.30
2017-10-19T10:38:37.237Z,25.30
2017-10-19T10:41:05.879Z,26.70
2017-10-19T10:43:33.638Z,26.60
2017-10-19T10:46:01.238Z,27.90
2017-10-19T10:48:35.988Z,27.60
2017-10-19T10:51:04.610Z,27.10
2017-10-19T10:53:32.211Z,28.10
2017-10-19T10:55:59.855Z,26.40
2017-10-19T10:58:27.491Z,28.70
2017-10-19T11:00:55.153Z,28.60
2017-10-19T11:03:22.884Z,29.60
2017-10-19T11:05:50.507Z,30.70
2017-10-19T11:08:18.208Z,29.70
2017-10-19T11:10:46.731Z,30.70
2017-10-19T11:13:14.383Z,30.80
2017-10-19T11:15:42.002Z,31.00
2017-10-19T11:18:09.669Z,27.50
2017-10-19T11:20:37.298Z,28.70
2017-10-19T11:23:04.921Z,28.10
2017-10-19T11:25:33.322Z,28.40
2017-10-19T11:28:00.933Z,28.40
2017-10-19T11:30:28.530Z,30.00
2017-10-19T11:32:56.306Z,28.90
2017-10-19T11:35:23.913Z,28.50
2017-10-19T11:37:51.558Z,30.00
2017-10-19T11:40:19.183Z,29.90
2017-10-19T11:42:47.819Z,28.50
2017-10-19T11:45:16.781Z,29.70
2017-10-19T11:47:46.692Z,29.30
2017-10-19T11:50:14.549Z,29.30
2017-10-19T11:52:43.316Z,29.40
2017-10-19T11:55:11.494Z,27.70
2017-10-19T11:57:39.673Z,29.30
2017-10-19T12:00:07.390Z,28.90
2017-10-19T12:02:35.034Z,27.80
2017-10-19T12:05:02.757Z,30.90
2017-10-19T12:07:30.449Z,30.50
2017-10-19T12:09:58.091Z,28.30
2017-10-19T12:12:26.461Z,28.10
2017-10-19T12:14:54.867Z,25.90
2017-10-19T12:17:22.481Z,25.90
2017-10-19T12:19:50.856Z,28.30
2017-10-19T12:22:19.479Z,28.30
2017-10-19T12:24:47.276Z,27.00
2017-10-19T12:27:14.919Z,28.90
2017-10-19T12:29:44.190Z,28.20
2017-10-19T12:32:12.484Z,29.30
2017-10-19T12:34:40.261Z,27.10
2017-10-19T12:37:07.870Z,28.10
2017-10-19T12:39:36.474Z,29.30
2017-10-19T12:42:04.086Z,29.70
2017-10-19T12:44:31.687Z,28.80
2017-10-19T12:46:59.310Z,29.40
2017-10-19T12:49:27.032Z,28.70
2017-10-19T12:51:54.679Z,30.20
2017-10-19T12:54:22.298Z,32.20
2017-10-19T12:56:49.906Z,30.80
2017-10-19T12:59:17.537Z,28.10
2017-10-19T13:01:45.290Z,28.80
2017-10-19T13:04:13.734Z,28.10
2017-10-19T13:06:41.345Z,28.10
2017-10-19T13:09:08.969Z,26.70
2017-10-19T13:11:36.599Z,28.60
2017-10-19T13:14:04.222Z,28.00
2017-10-19T13:16:31.867Z,28.00
2017-10-19T13:18:59.477Z,27.00
2017-10-19T13:21:27.867Z,22.80
2017-10-19T13:23:55.502Z,22.80
2017-10-19T13:26:23.139Z,21.50
2017-10-19T13:28:50.807Z,20.50
2017-10-19T13:31:18.402Z,20.20
2017-10-19T13:33:46.215Z,19.50
2017-10-19T13:36:13.835Z,21.00
2017-10-19T13:38:41.450Z,20.00
2017-10-19T13:41:09.105Z,20.20
2017-10-19T13:43:37.489Z,21.70
2017-10-19T13:46:05.139Z,21.60
2017-10-19T13:48:33.722Z,21.40
2017-10-19T13:51:01.314Z,21.40
2017-10-19T13:53:28.954Z,22.30
2017-10-19T13:55:56.720Z,22.10
2017-10-19T13:58:24.317Z,25.20
2017-10-19T14:00:51.951Z,26.90
2017-10-19T14:03:19.562Z,27.60
2017-10-19T14:05:47.965Z,28.60
2017-10-19T14:08:15.662Z,28.50
2017-10-19T14:10:43.272Z,29.80
2017-10-19T14:13:10.957Z,33.60
2017-10-19T14:15:38.575Z,35.40
2017-10-19T14:18:06.615Z,38.00
2017-10-19T14:20:34.255Z,38.60
2017-10-19T14:23:01.866Z,38.70
2017-10-19T14:25:29.577Z,39.90
2017-10-19T14:27:57.247Z,40.30
2017-10-19T14:30:24.901Z,41.60
2017-10-19T14:32:53.274Z,42.30
2017-10-19T14:35:21.662Z,43.80
2017-10-19T14:37:49.310Z,43.80
2017-10-19T14:40:16.911Z,44.80
2017-10-19T14:42:45.341Z,44.60
2017-10-19T14:45:12.954Z,44.50
2017-10-19T14:47:40.581Z,44.00
2017-10-19T14:50:09.049Z,44.30
2017-10-19T14:52:38.395Z,45.80
2017-10-19T14:55:06.122Z,45.70
2017-10-19T14:57:33.715Z,44.80
2017-10-19T15:00:02.136Z,44.60
2017-10-19T15:02:29.774Z,44.60
2017-10-19T15:04:57.454Z,45.20
2017-10-19T15:07:25.896Z,46.70
2017-10-19T15:09:53.598Z,47.00
2017-10-19T15:12:21.229Z,48.10
2017-10-19T15:14:48.990Z,49.50
2017-10-19T15:17:17.906Z,49.10
2017-10-19T15:19:45.618Z,49.90
2017-10-19T15:22:14.023Z,50.20
2017-10-19T15:24:41.695Z,50.20
2017-10-19T15:27:10.133Z,49.80
2017-10-19T15:29:38.586Z,49.80
2017-10-19T15:32:06.365Z,50.70
2017-10-19T15:34:34.818Z,53.00
2017-10-19T15:37:02.458Z,53.00
2017-10-19T15:39:30.134Z,55.20
2017-10-19T15:41:58.579Z,53.30
2017-10-19T15:44:26.266Z,53.30
2017-10-19T15:46:53.990Z,54.70
2017-10-19T15:49:21.666Z,53.00
2017-10-19T15:51:49.304Z,53.80
2017-10-19T15:54:16.952Z,55.90
2017-10-19T15:56:45.382Z,54.70
2017-10-19T15:59:13.022Z,57.30
2017-10-19T16:01:41.033Z,58.00
2017-10-19T16:04:08.726Z,56.50
2017-10-19T16:06:36.370Z,57.00
2017-10-19T16:09:04.074Z,58.60
2017-10-19T16:11:32.707Z,58.60
2017-10-19T16:14:00.403Z,58.00
2017-10-19T16:16:28.079Z,59.50
2017-10-19T16:18:55.877Z,59.50
2017-10-19T16:21:23.579Z,59.80
2017-10-19T16:23:51.214Z,60.70
2017-10-19T16:26:18.935Z,61.40
2017-10-19T16:28:46.626Z,62.20
2017-10-19T16:31:14.255Z,62.50
2017-10-19T16:33:41.975Z,63.00
2017-10-19T16:36:09.657Z,63.90
2017-10-19T16:38:38.050Z,64.00
2017-10-19T16:41:06.061Z,63.90
2017-10-19T16:43:33.741Z,65.20
2017-10-19T16:46:01.431Z,64.30
2017-10-19T16:48:29.062Z,65.20
2017-10-19T16:50:57.517Z,65.30
2017-10-19T16:53:26.392Z,66.00
2017-10-19T16:55:54.791Z,66.10
2017-10-19T16:58:22.453Z,65.90
2017-10-19T17:00:50.085Z,66.70
2017-10-19T17:03:17.883Z,65.50
2017-10-19T17:05:45.600Z,65.50
2017-10-19T17:08:13.248Z,66.20
2017-10-19T17:10:42.373Z,67.00
2017-10-19T17:13:11.394Z,68.70
2017-10-19T17:15:39.069Z,68.50
2017-10-19T17:18:06.931Z,66.50
2017-10-19T17:20:34.576Z,66.20
2017-10-19T17:23:02.235Z,66.50
2017-10-19T17:25:29.877Z,66.90
2017-10-19T17:27:57.548Z,68.70
2017-10-19T17:30:26.032Z,68.50
2017-10-19T17:32:53.665Z,68.40
2017-10-19T17:35:22.154Z,68.50
2017-10-19T17:37:49.930Z,68.50
2017-10-19T17:40:18.302Z,68.30
2017-10-19T17:42:46.171Z,69.20
2017-10-19T17:45:13.804Z,69.30
2017-10-19T17:47:41.491Z,69.90
2017-10-19T17:50:09.963Z,68.30
2017-10-19T17:52:38.527Z,68.20
2017-10-19T17:55:06.879Z,68.30
2017-10-19T17:57:35.286Z,70.10
2017-10-19T18:00:04.424Z,70.90
2017-10-19T18:02:32.848Z,72.00
2017-10-19T18:05:00.534Z,71.90
2017-10-19T18:07:28.170Z,71.40
2017-10-19T18:09:55.911Z,72.00
2017-10-19T18:12:23.571Z,72.50
2017-10-19T18:14:51.241Z,72.20
2017-10-19T18:17:18.903Z,73.60
2017-10-19T18:19:46.534Z,73.60
2017-10-19T18:22:14.179Z,73.40
2017-10-19T18:24:41.832Z,74.00
2017-10-19T18:27:10.544Z,74.60
2017-10-19T18:29:38.494Z,74.50
2017-10-19T18:32:06.205Z,75.10
2017-10-19T18:34:33.835Z,73.40
2017-10-19T18:37:01.523Z,73.00
2017-10-19T18:39:29.154Z,73.50
2017-10-19T18:41:56.939Z,73.20
2017-10-19T18:44:24.591Z,73.70
2017-10-19T18:46:52.211Z,74.20
2017-10-19T18:49:19.882Z,73.50
2017-10-19T18:51:47.512Z,74.50
2017-10-19T18:54:15.194Z,74.60
2017-10-19T18:56:42.911Z,75.20
2017-10-19T18:59:10.551Z,75.30
2017-10-19T19:01:38.216Z,77.00
2017-10-19T19:04:05.989Z,77.10
2017-10-19T19:06:33.655Z,77.50
2017-10-19T19:09:02.070Z,77.80
2017-10-19T19:11:29.730Z,77.70
2017-10-19T19:13:57.469Z,77.60
2017-10-19T19:16:25.103Z,77.70
2017-10-19T19:18:52.789Z,77.70
2017-10-19T19:21:20.422Z,77.30
2017-10-19T19:23:48.044Z,77.60
2017-10-19T19:26:15.878Z,77.00
2017-10-19T19:28:43.588Z,76.80
2017-10-19T19:31:11.297Z,76.90
2017-10-19T19:33:38.925Z,77.00
2017-10-19T19:36:06.556Z,76.80
2017-10-19T19:38:34.226Z,76.90
2017-10-19T19:41:01.919Z,78.00
2017-10-19T19:43:29.583Z,78.10
2017-10-19T19:45:59.523Z,77.40
2017-10-19T19:48:35.371Z,77.40
2017-10-19T19:51:08.846Z,77.80
2017-10-19T19:53:36.570Z,77.90
2017-10-19T19:56:04.203Z,78.10
2017-10-19T19:58:32.396Z,78.80
2017-10-19T20:01:00.051Z,78.10
2017-10-19T20:03:27.688Z,77.80
2017-10-19T20:05:55.350Z,78.00
2017-10-19T20:08:23.218Z,77.70
2017-10-19T20:10:50.862Z,77.30
2017-10-19T20:13:18.487Z,77.70
2017-10-19T20:15:46.306Z,77.10
2017-10-19T20:18:13.949Z,76.30
2017-10-19T20:20:41.873Z,75.90
2017-10-19T20:23:09.563Z,76.90
2017-10-19T20:25:37.250Z,77.40
2017-10-19T20:28:06.002Z,77.60
2017-10-19T20:30:33.711Z,77.00
2017-10-19T20:33:02.106Z,76.90
2017-10-19T20:35:29.725Z,76.80
2017-10-19T20:37:57.400Z,76.90
2017-10-19T20:40:25.030Z,76.40
2017-10-19T20:42:52.664Z,75.00
2017-10-19T20:45:21.127Z,76.30
2017-10-19T20:47:49.519Z,76.20
2017-10-19T20:50:17.249Z,76.20
2017-10-19T20:52:44.971Z,75.80
2017-10-19T20:55:12.596Z,75.80
2017-10-19T20:57:41.014Z,75.50
2017-10-19T21:00:08.687Z,75.90
2017-10-19T21:02:36.338Z,75.30
2017-10-19T21:05:04.092Z,75.00
2017-10-19T21:07:31.953Z,75.00
2017-10-19T21:09:59.595Z,74.30
2017-10-19T21:12:27.250Z,73.80
2017-10-19T21:14:54.909Z,73.80
2017-10-19T21:17:22.548Z,73.70
2017-10-19T21:19:50.205Z,73.50
2017-10-19T21:22:17.966Z,73.70
2017-10-19T21:24:46.369Z,72.40
2017-10-19T21:27:14.019Z,72.30
2017-10-19T21:29:41.858Z,72.40
2017-10-19T21:32:09.538Z,72.40
2017-10-19T21:34:37.220Z,72.60
2017-10-19T21:37:05.842Z,71.90
2017-10-19T21:39:33.674Z,71.80
2017-10-19T21:42:01.577Z,70.80
2017-10-19T21:44:29.223Z,70.20
2017-10-19T21:46:56.862Z,70.20
2017-10-19T21:49:25.065Z,70.40
2017-10-19T21:51:53.254Z,69.60
2017-10-19T21:54:20.943Z,70.00
2017-10-19T21:56:48.632Z,70.00
2017-10-19T21:59:16.394Z,70.20
2017-10-19T22:01:44.033Z,69.50
2017-10-19T22:04:11.695Z,69.20
2017-10-19T22:06:39.340Z,68.80
2017-10-19T22:09:07.063Z,68.70
2017-10-19T22:11:34.721Z,68.80
2017-10-19T22:14:02.368Z,69.30
2017-10-19T22:16:29.999Z,68.70
2017-10-19T22:18:58.428Z,68.60
2017-10-19T22:21:26.178Z,68.60
2017-10-19T22:23:53.860Z,68.70
2017-10-19T22:26:21.498Z,68.90
2017-10-19T22:28:49.922Z,68.50
2017-10-19T22:31:17.589Z,68.50
2017-10-19T22:33:46.114Z,67.50
2017-10-19T22:36:13.797Z,67.50
2017-10-19T22:38:41.468Z,67.50
2017-10-19T22:41:09.103Z,67.50
2017-10-19T22:43:36.971Z,67.80
2017-10-19T22:46:04.610Z,68.00
2017-10-19T22:48:33.522Z,67.60
2017-10-19T22:51:01.152Z,67.80
2017-10-19T22:53:28.803Z,68.30
2017-10-19T22:55:56.470Z,67.90
2017-10-19T22:58:24.108Z,68.00
2017-10-19T23:00:51.792Z,68.00
2017-10-19T23:03:19.452Z,68.00
2017-10-19T23:05:47.252Z,68.30
2017-10-19T23:08:14.926Z,69.00
2017-10-19T23:10:42.593Z,69.00
2017-10-19T23:13:10.259Z,69.90
2017-10-19T23:15:37.888Z,70.00
2017-10-19T23:18:05.840Z,69.10
2017-10-19T23:20:33.497Z,69.40
2017-10-19T23:23:01.897Z,70.00
2017-10-19T23:25:29.558Z,70.00
2017-10-19T23:27:57.234Z,69.90
2017-10-19T23:30:24.864Z,69.90
2017-10-19T23:32:52.519Z,70.50
2017-10-19T23:35:20.156Z,71.00
2017-10-19T23:37:47.848Z,71.30
2017-10-19T23:40:16.299Z,70.90
2017-10-19T23:42:43.958Z,70.80
2017-10-19T23:45:12.441Z,71.70
2017-10-19T23:47:40.102Z,71.70
2017-10-19T23:50:07.759Z,72.60
2017-10-19T23:52:35.408Z,72.60
2017-10-19T23:55:03.064Z,72.10
2017-10-19T23:57:31.513Z,71.90
2017-10-19T23:59:59.155Z,71.70
